createdAt,value
2022-09-20T00:00:04.321Z,95.22
2022-09-20T00:05:27.597Z,95.20
2022-09-20T00:10:36.281Z,95.18
2022-09-20T00:15:45.119Z,95.17
2022-09-20T00:20:50.202Z,95.11
2022-09-20T00:26:01.672Z,95.04
2022-09-20T00:31:05.292Z,94.97
2022-09-20T00:36:08.437Z,94.90
2022-09-20T00:41:11.538Z,94.84
2022-09-20T00:46:29.267Z,94.85
2022-09-20T00:51:38.194Z,94.87
2022-09-20T00:56:44.295Z,94.92
2022-09-20T01:01:53.165Z,94.99
2022-09-20T01:07:02.355Z,95.04
2022-09-20T01:12:09.825Z,95.05
2022-09-20T01:17:14.198Z,95.11
2022-09-20T01:22:23.143Z,95.15
2022-09-20T01:27:52.575Z,95.15
2022-09-20T01:33:09.804Z,95.21
2022-09-20T01:38:25.196Z,95.27
2022-09-20T01:43:49.268Z,95.35
2022-09-20T01:48:59.597Z,95.39
2022-09-20T01:54:21.150Z,95.44
2022-09-20T01:59:43.075Z,95.50
2022-09-20T02:05:30.727Z,95.49
2022-09-20T02:11:05.284Z,95.50
2022-09-20T02:16:39.235Z,95.50
2022-09-20T02:21:51.494Z,95.44
2022-09-20T02:27:17.684Z,95.41
2022-09-20T02:32:39.075Z,95.40
2022-09-20T02:37:51.397Z,95.39
2022-09-20T02:43:03.747Z,95.39
2022-09-20T02:48:06.978Z,95.40
2022-09-20T02:53:36.122Z,95.41
2022-09-20T02:59:04.787Z,95.37
2022-09-20T03:04:07.784Z,95.43
2022-09-20T03:09:29.698Z,95.48
2022-09-20T03:14:35.567Z,95.48
2022-09-20T03:20:00.796Z,95.40
2022-09-20T03:25:39.536Z,95.34
2022-09-20T03:30:57.179Z,95.21
2022-09-20T03:36:08.885Z,95.18
2022-09-20T03:41:30.186Z,95.15
2022-09-20T03:46:46.847Z,95.17
2022-09-20T03:52:17.703Z,95.14
2022-09-20T03:58:08.753Z,95.09
2022-09-20T04:03:23.536Z,95.10
2022-09-20T04:09:03.887Z,95.09
2022-09-20T04:14:30.192Z,95.11
2022-09-20T04:19:42.332Z,95.11
2022-09-20T04:25:01.535Z,95.02
2022-09-20T04:30:07.743Z,94.87
2022-09-20T04:35:38.483Z,94.83
2022-09-20T04:40:41.635Z,94.91
2022-09-20T04:45:54.001Z,94.94
2022-09-20T04:51:07.663Z,94.84
2022-09-20T04:56:41.423Z,94.86
2022-09-20T05:02:26.323Z,94.89
2022-09-20T05:07:52.412Z,95.02
2022-09-20T05:13:09.952Z,95.12
2022-09-20T05:18:24.820Z,95.20
2022-09-20T05:23:46.570Z,95.24
2022-09-20T05:28:57.211Z,95.14
2022-09-20T05:34:16.628Z,95.06
2022-09-20T05:39:32.144Z,94.92
2022-09-20T05:44:49.789Z,94.70
2022-09-20T05:50:25.251Z,94.51
2022-09-20T05:55:43.613Z,94.34
2022-09-20T06:00:53.603Z,94.17
2022-09-20T06:06:07.459Z,93.92
2022-09-20T06:11:35.628Z,93.69
2022-09-20T06:16:43.133Z,93.38
2022-09-20T06:21:55.663Z,92.90
2022-09-20T06:27:04.811Z,92.51
2022-09-20T06:32:08.743Z,91.39
2022-09-20T06:37:36.846Z,90.45
2022-09-20T06:42:39.940Z,89.63
2022-09-20T06:47:43.060Z,87.48
2022-09-20T06:52:47.051Z,85.29
2022-09-20T06:57:51.772Z,81.72
2022-09-20T07:02:55.794Z,78.71
2022-09-20T07:08:00.174Z,71.56
2022-09-20T07:13:03.585Z,62.20
2022-09-20T07:18:08.589Z,56.10
2022-09-20T07:23:11.619Z,44.69
2022-09-20T07:28:14.856Z,38.09
2022-09-20T07:33:21.810Z,34.43
2022-09-20T07:38:25.131Z,34.42
2022-09-20T07:43:29.936Z,36.63
2022-09-20T07:48:36.247Z,38.28
2022-09-20T07:53:40.616Z,39.55
2022-09-20T07:58:48.749Z,40.33
2022-09-20T08:03:55.636Z,41.96
2022-09-20T08:08:58.842Z,44.60
2022-09-20T08:14:08.144Z,47.36
2022-09-20T08:19:23.531Z,48.42
2022-09-20T08:24:27.004Z,48.88
2022-09-20T08:29:30.622Z,45.77
2022-09-20T08:34:33.780Z,42.85
2022-09-20T08:45:22.255Z,39.51
2022-09-20T08:50:27.278Z,41.72
2022-09-20T08:55:37.731Z,43.65
2022-09-20T09:00:44.364Z,44.02
2022-09-20T09:05:51.173Z,39.38
2022-09-20T09:10:58.143Z,39.20
2022-09-20T09:16:07.855Z,40.42
2022-09-20T09:21:30.149Z,41.32
2022-09-20T09:26:39.192Z,37.69
2022-09-20T09:31:45.479Z,35.98
2022-09-20T09:36:49.193Z,33.63
2022-09-20T09:41:53.043Z,34.30
2022-09-20T09:46:57.755Z,34.65
2022-09-20T09:52:16.146Z,34.72
2022-09-20T09:57:49.130Z,35.94
2022-09-20T10:03:14.260Z,37.46
2022-09-20T10:08:36.273Z,39.70
2022-09-20T10:13:45.451Z,41.83
2022-09-20T10:18:59.410Z,42.64
2022-09-20T10:24:05.901Z,43.66
2022-09-20T10:29:24.589Z,46.12
2022-09-20T10:34:54.291Z,47.99
2022-09-20T10:40:53.104Z,48.67
2022-09-20T10:46:31.905Z,48.08
2022-09-20T10:51:54.920Z,50.60
2022-09-20T10:57:17.480Z,52.80
2022-09-20T11:02:52.233Z,52.95
2022-09-20T11:08:16.015Z,53.77
2022-09-20T11:13:38.786Z,54.76
2022-09-20T11:18:54.609Z,55.98
2022-09-20T11:24:14.821Z,56.28
2022-09-20T11:29:42.579Z,56.80
2022-09-20T11:34:59.507Z,57.53
2022-09-20T11:40:28.142Z,58.16
2022-09-20T11:45:32.160Z,58.61
2022-09-20T11:50:47.776Z,57.76
2022-09-20T11:55:51.045Z,56.37
2022-09-20T12:00:57.587Z,57.02
2022-09-20T12:06:09.853Z,58.85
2022-09-20T12:11:16.526Z,59.44
2022-09-20T12:16:36.994Z,59.81
2022-09-20T12:21:58.796Z,59.69
2022-09-20T12:27:21.976Z,60.86
2022-09-20T12:32:52.526Z,59.85
2022-09-20T12:37:56.141Z,61.54
2022-09-20T12:42:59.454Z,60.66
2022-09-20T12:48:03.069Z,59.41
2022-09-20T12:53:14.643Z,57.98
2022-09-20T12:58:23.208Z,57.93
2022-09-20T13:03:41.474Z,58.69
2022-09-20T13:09:04.548Z,58.95
2022-09-20T13:14:10.819Z,59.15
2022-09-20T13:19:30.617Z,59.86
2022-09-20T13:24:38.644Z,60.77
2022-09-20T13:29:44.972Z,61.86
2022-09-20T13:35:25.707Z,60.21
2022-09-20T13:40:39.313Z,60.36
2022-09-20T13:45:44.100Z,60.04
2022-09-20T13:50:52.743Z,60.26
2022-09-20T13:55:57.893Z,60.59
2022-09-20T14:01:09.947Z,60.64
2022-09-20T14:06:16.219Z,61.29
2022-09-20T14:11:24.316Z,62.97
2022-09-20T14:16:40.298Z,64.08
2022-09-20T14:21:44.859Z,64.75
2022-09-20T14:27:04.970Z,65.67
2022-09-20T14:32:18.728Z,66.22
2022-09-20T14:37:30.017Z,66.71
2022-09-20T14:42:43.110Z,67.52
2022-09-20T14:47:56.503Z,68.89
2022-09-20T14:53:03.358Z,69.22
2022-09-20T14:58:15.925Z,70.29
2022-09-20T15:03:39.582Z,70.42
2022-09-20T15:08:46.332Z,70.73
2022-09-20T15:13:49.724Z,70.76
2022-09-20T15:18:53.230Z,72.28
2022-09-20T15:23:57.160Z,72.35
2022-09-20T15:29:01.289Z,72.66
2022-09-20T15:34:07.677Z,73.36
2022-09-20T15:39:11.698Z,74.23
2022-09-20T15:44:19.315Z,75.12
2022-09-20T15:49:22.723Z,75.67
2022-09-20T15:54:27.061Z,76.16
2022-09-20T15:59:33.481Z,77.04
2022-09-20T16:04:37.881Z,78.12
2022-09-20T16:09:41.290Z,78.77
2022-09-20T16:14:45.220Z,79.39
2022-09-20T16:19:49.243Z,80.22
2022-09-20T16:24:52.839Z,80.69
2022-09-20T16:29:57.240Z,80.67
2022-09-20T16:35:05.564Z,81.63
2022-09-20T16:40:13.051Z,81.97
2022-09-20T16:45:17.409Z,82.03
2022-09-20T16:50:21.863Z,82.24
2022-09-20T16:55:25.137Z,82.30
2022-09-20T17:00:28.745Z,82.75
2022-09-20T17:05:33.140Z,83.14
2022-09-20T17:10:36.373Z,83.48
2022-09-20T17:15:40.185Z,83.99
2022-09-20T17:20:45.938Z,84.47
2022-09-20T17:25:51.178Z,84.86
2022-09-20T17:31:01.115Z,85.16
2022-09-20T17:36:06.798Z,85.45
2022-09-20T17:41:17.392Z,86.02
2022-09-20T17:46:26.510Z,86.28
2022-09-20T17:51:33.429Z,86.60
2022-09-20T17:56:37.511Z,87.04
2022-09-20T18:01:42.775Z,87.42
2022-09-20T18:06:50.167Z,87.82
2022-09-20T18:11:55.017Z,87.84
2022-09-20T18:17:01.666Z,87.86
2022-09-20T18:22:06.131Z,88.08
2022-09-20T18:27:09.730Z,88.37
2022-09-20T18:32:14.317Z,88.64
2022-09-20T18:37:19.351Z,89.25
2022-09-20T18:42:23.275Z,89.80
2022-09-20T18:47:28.809Z,90.30
2022-09-20T18:52:32.264Z,90.52
2022-09-20T18:57:36.170Z,90.69
2022-09-20T19:02:58.642Z,90.83
2022-09-20T19:08:20.680Z,90.73
2022-09-20T19:13:59.373Z,90.86
2022-09-20T19:19:26.306Z,90.99
2022-09-20T19:24:41.796Z,91.03
2022-09-20T19:29:46.655Z,91.05
2022-09-20T19:35:02.046Z,91.15
2022-09-20T19:40:12.670Z,91.26
2022-09-20T19:45:22.988Z,91.32
2022-09-20T19:50:49.682Z,91.48
2022-09-20T19:56:02.576Z,91.70
2022-09-20T20:01:07.563Z,91.85
2022-09-20T20:06:34.698Z,92.02
2022-09-20T20:11:41.689Z,92.14
2022-09-20T20:17:03.342Z,92.17
2022-09-20T20:22:16.066Z,92.34
2022-09-20T20:27:21.230Z,92.59
2022-09-20T20:32:24.528Z,92.64
2022-09-20T20:37:29.791Z,92.74
2022-09-20T20:42:34.110Z,92.84
2022-09-20T20:47:37.696Z,92.81
2022-09-20T20:52:41.374Z,92.89
2022-09-20T20:57:45.381Z,93.00
2022-09-20T21:02:49.347Z,93.06
2022-09-20T21:07:53.645Z,93.08
2022-09-20T21:12:58.779Z,93.25
2022-09-20T21:18:02.521Z,93.44
2022-09-20T21:23:06.443Z,93.48
2022-09-20T21:28:09.649Z,93.56
2022-09-20T21:33:12.757Z,93.66
2022-09-20T21:38:16.487Z,93.74
2022-09-20T21:43:19.582Z,93.79
2022-09-20T21:48:24.224Z,93.80
2022-09-20T21:53:27.470Z,93.82
2022-09-20T21:58:31.049Z,93.89
2022-09-20T22:03:39.611Z,93.84
2022-09-20T22:08:47.399Z,93.86
2022-09-20T22:13:52.593Z,93.92
2022-09-20T22:18:57.098Z,93.96
2022-09-20T22:24:03.042Z,93.99
2022-09-20T22:29:07.192Z,94.03
2022-09-20T22:34:11.425Z,94.04
2022-09-20T22:39:15.350Z,94.05
2022-09-20T22:44:18.454Z,94.10
2022-09-20T22:49:21.563Z,94.18
2022-09-20T22:54:24.666Z,94.27
2022-09-20T22:59:27.771Z,94.36
2022-09-20T23:04:31.081Z,94.41
2022-09-20T23:09:34.187Z,94.39
2022-09-20T23:14:37.189Z,94.47
2022-09-20T23:19:40.399Z,94.56
2022-09-20T23:24:43.607Z,94.69
2022-09-20T23:29:46.612Z,94.82
2022-09-20T23:34:50.003Z,94.88
2022-09-20T23:39:53.126Z,94.90
2022-09-20T23:44:56.133Z,94.87
2022-09-20T23:49:59.237Z,94.90
2022-09-20T23:55:02.343Z,94.89
